createdAt,value
2016-08-01T00:00:12.968Z,0
2016-08-01T00:01:12.228Z,0
2016-08-01T00:02:11.508Z,0
2016-08-01T00:03:12.182Z,0
2016-08-01T00:04:12.833Z,0
2016-08-01T00:05:11.423Z,0
2016-08-01T00:06:12.774Z,0
2016-08-01T00:07:12.736Z,0
2016-08-01T00:08:12.708Z,0
2016-08-01T00:09:12.679Z,0
2016-08-01T00:10:12.655Z,0
2016-08-01T00:11:11.919Z,0
2016-08-01T00:12:12.583Z,0
2016-08-01T00:13:12.555Z,0
2016-08-01T00:14:12.531Z,0
2016-08-01T00:15:11.792Z,0
2016-08-01T00:16:12.455Z,0
2016-08-01T00:17:12.429Z,0
2016-08-01T00:18:11.001Z,0
2016-08-01T00:19:11.668Z,0
2016-08-01T00:20:12.336Z,0
2016-08-01T00:21:11.604Z,0
2016-08-01T00:22:10.877Z,0
2016-08-01T00:23:10.849Z,0
2016-08-01T00:24:12.207Z,0
2016-08-01T00:25:12.171Z,0
2016-08-01T00:26:12.142Z,0
2016-08-01T00:27:12.114Z,0
2016-08-01T00:28:11.397Z,0
2016-08-01T00:29:11.361Z,0
2016-08-01T00:30:12.017Z,0
2016-08-01T00:31:11.295Z,0
2016-08-01T00:32:11.263Z,0
2016-08-01T00:33:11.223Z,0
2016-08-01T00:34:11.894Z,0
2016-08-01T00:35:11.168Z,0
2016-08-01T00:36:11.135Z,0
2016-08-01T00:37:10.406Z,0
2016-08-01T00:38:11.091Z,0
2016-08-01T00:39:11.046Z,0
2016-08-01T00:40:11.706Z,0
2016-08-01T00:41:10.978Z,0
2016-08-01T00:42:11.639Z,0
2016-08-01T00:43:10.910Z,0
2016-08-01T00:44:11.579Z,0
2016-08-01T00:45:10.851Z,0
2016-08-01T00:46:11.516Z,0
2016-08-01T00:47:11.487Z,0
2016-08-01T00:48:11.455Z,0
2016-08-01T00:49:10.731Z,0
2016-08-01T00:50:10.694Z,0
2016-08-01T00:51:11.356Z,0
2016-08-01T00:52:10.633Z,0
2016-08-01T00:53:10.598Z,0
2016-08-01T00:54:10.565Z,0
2016-08-01T00:55:11.246Z,0
2016-08-01T00:56:11.214Z,0
2016-08-01T00:57:10.471Z,0
2016-08-01T00:58:10.444Z,0
2016-08-01T00:59:10.420Z,0
2016-08-01T01:00:10.385Z,0
2016-08-01T01:01:11.049Z,0
2016-08-01T01:02:11.013Z,0
2016-08-01T01:03:10.977Z,0
2016-08-01T01:04:10.264Z,0
2016-08-01T01:05:10.222Z,0
2016-08-01T01:06:10.880Z,0
2016-08-01T01:07:09.470Z,0
2016-08-01T01:08:09.442Z,0
2016-08-01T01:09:10.795Z,0
2016-08-01T01:10:10.066Z,0
2016-08-01T01:11:10.730Z,0
2016-08-01T01:12:10.703Z,0
2016-08-01T01:13:09.970Z,0
2016-08-01T01:14:10.636Z,0
2016-08-01T01:15:10.605Z,0
2016-08-01T01:16:10.570Z,0
2016-08-01T01:17:09.853Z,0
2016-08-01T01:18:10.513Z,0
2016-08-01T01:19:09.789Z,0
2016-08-01T01:20:09.048Z,0
2016-08-01T01:21:09.720Z,0
2016-08-01T01:22:09.692Z,0
2016-08-01T01:23:10.358Z,0
2016-08-01T01:24:08.933Z,0
2016-08-01T01:25:10.283Z,0
2016-08-01T01:26:09.557Z,0
2016-08-01T01:27:09.521Z,0
2016-08-01T01:28:10.196Z,0
2016-08-01T01:29:09.473Z,0
2016-08-01T01:30:10.131Z,0
2016-08-01T01:31:08.736Z,0
2016-08-01T01:32:09.368Z,0
2016-08-01T01:33:10.043Z,0
2016-08-01T01:34:08.614Z,0
2016-08-01T01:35:09.272Z,0
2016-08-01T01:36:09.242Z,0
2016-08-01T01:37:09.903Z,0
2016-08-01T01:38:09.877Z,0
2016-08-01T01:39:09.847Z,0
2016-08-01T01:40:08.417Z,0
2016-08-01T01:41:09.778Z,0
2016-08-01T01:42:09.746Z,0
2016-08-01T01:43:09.016Z,0
2016-08-01T01:44:09.688Z,0
2016-08-01T01:45:09.651Z,0
2016-08-01T01:46:08.925Z,0
2016-08-01T01:47:09.590Z,0
2016-08-01T01:48:09.563Z,0
2016-08-01T01:49:09.527Z,0
2016-08-01T01:50:09.497Z,0
2016-08-01T01:51:08.072Z,0
2016-08-01T01:52:08.730Z,0
2016-08-01T01:53:09.409Z,0
2016-08-01T01:54:09.371Z,0
2016-08-01T01:55:09.333Z,0
2016-08-01T01:56:08.607Z,0
2016-08-01T01:57:07.886Z,0
2016-08-01T01:58:09.239Z,0
2016-08-01T01:59:08.514Z,0
2016-08-01T02:00:09.183Z,0
2016-08-01T02:01:08.448Z,0
2016-08-01T02:02:09.114Z,0
2016-08-01T02:03:09.084Z,0
2016-08-01T02:04:09.049Z,0
2016-08-01T02:05:09.019Z,0
2016-08-01T02:06:08.295Z,0
2016-08-01T02:07:08.261Z,0
2016-08-01T02:08:08.929Z,0
2016-08-01T02:09:08.201Z,0
2016-08-01T02:10:08.872Z,0
2016-08-01T02:11:08.131Z,0
2016-08-01T02:12:08.101Z,0
2016-08-01T02:13:08.067Z,0
2016-08-01T02:14:08.732Z,0
2016-08-01T02:15:08.698Z,0
2016-08-01T02:16:08.670Z,0
2016-08-01T02:17:08.648Z,0
2016-08-01T02:18:07.910Z,0
2016-08-01T02:19:07.878Z,0
2016-08-01T02:20:07.163Z,0
2016-08-01T02:21:07.809Z,0
2016-08-01T02:22:08.474Z,0
2016-08-01T02:23:08.462Z,0
2016-08-01T02:24:08.411Z,0
2016-08-01T02:25:07.694Z,0
2016-08-01T02:26:07.655Z,0
2016-08-01T02:27:08.322Z,0
2016-08-01T02:28:08.290Z,0
2016-08-01T02:29:08.250Z,0
2016-08-01T02:30:08.222Z,0
2016-08-01T02:31:07.509Z,0
2016-08-01T02:32:08.165Z,0
2016-08-01T02:33:06.737Z,0
2016-08-01T02:34:06.943Z,0
2016-08-01T02:35:06.678Z,0
2016-08-01T02:36:08.036Z,0
2016-08-01T02:37:08.001Z,0
2016-08-01T02:38:07.270Z,0
2016-08-01T02:39:07.259Z,0
2016-08-01T02:40:06.512Z,0
2016-08-01T02:41:07.175Z,0
2016-08-01T02:42:07.848Z,0
2016-08-01T02:43:07.809Z,0
2016-08-01T02:44:07.776Z,0
2016-08-01T02:45:06.354Z,0
2016-08-01T02:46:06.324Z,0
2016-08-01T02:47:06.979Z,0
2016-08-01T02:48:06.965Z,0
2016-08-01T02:49:06.003Z,0
2016-08-01T02:50:07.588Z,0
2016-08-01T02:51:07.557Z,0
2016-08-01T02:52:06.831Z,0
2016-08-01T02:53:06.795Z,0
2016-08-01T02:54:06.764Z,0
2016-08-01T02:55:06.730Z,0
2016-08-01T02:56:07.392Z,0
2016-08-01T02:57:06.666Z,0
2016-08-01T02:58:05.941Z,0
2016-08-01T02:59:06.604Z,0
2016-08-01T03:00:07.272Z,0
2016-08-01T03:01:05.844Z,0
2016-08-01T03:02:06.504Z,0
2016-08-01T03:03:06.481Z,0
2016-08-01T03:05:07.109Z,0
2016-08-01T03:06:06.383Z,0
2016-08-01T03:07:04.962Z,0
2016-08-01T03:08:05.618Z,0
2016-08-01T03:09:06.292Z,0
2016-08-01T03:10:06.949Z,0
2016-08-01T03:11:06.912Z,0
2016-08-01T03:12:06.187Z,0
2016-08-01T03:13:06.156Z,0
2016-08-01T03:14:06.128Z,0
2016-08-01T03:15:06.094Z,0
2016-08-01T03:16:06.761Z,0
2016-08-01T03:17:06.033Z,0
2016-08-01T03:18:06.694Z,0
2016-08-01T03:19:06.664Z,0
2016-08-01T03:20:05.231Z,0
2016-08-01T03:21:06.608Z,0
2016-08-01T03:22:05.872Z,0
2016-08-01T03:23:06.531Z,0
2016-08-01T03:24:05.806Z,0
2016-08-01T03:25:06.465Z,0
2016-08-01T03:26:06.436Z,0
2016-08-01T03:27:05.711Z,0
2016-08-01T03:28:06.373Z,0
2016-08-01T03:29:05.642Z,4
2016-08-01T03:30:06.316Z,4
2016-08-01T03:31:05.584Z,0
2016-08-01T03:32:04.852Z,4
2016-08-01T03:33:06.213Z,4
2016-08-01T03:34:06.182Z,4
2016-08-01T03:35:06.152Z,4
2016-08-01T03:36:06.119Z,4
2016-08-01T03:37:05.387Z,4
2016-08-01T03:38:04.662Z,8
2016-08-01T03:39:06.017Z,8
2016-08-01T03:40:05.293Z,8
2016-08-01T03:41:04.563Z,12
2016-08-01T03:42:05.922Z,16
2016-08-01T03:43:05.205Z,12
2016-08-01T03:44:05.860Z,20
2016-08-01T03:45:05.827Z,20
2016-08-01T03:46:05.101Z,24
2016-08-01T03:47:05.764Z,28
2016-08-01T03:48:05.039Z,32
2016-08-01T03:49:05.005Z,40
2016-08-01T03:50:05.673Z,40
2016-08-01T03:51:05.635Z,48
2016-08-01T03:52:04.911Z,52
2016-08-01T03:53:04.884Z,56
2016-08-01T03:54:05.548Z,64
2016-08-01T03:55:05.510Z,72
2016-08-01T03:56:04.781Z,80
2016-08-01T03:57:04.749Z,92
2016-08-01T03:58:05.417Z,104
2016-08-01T03:59:05.385Z,116
2016-08-01T04:00:05.346Z,128
2016-08-01T04:01:05.321Z,140
2016-08-01T04:02:04.596Z,152
2016-08-01T04:03:05.263Z,168
2016-08-01T04:04:05.227Z,184
2016-08-01T04:05:05.192Z,200
2016-08-01T04:06:05.158Z,216
2016-08-01T04:07:05.127Z,228
2016-08-01T04:08:05.099Z,244
2016-08-01T04:09:04.378Z,260
2016-08-01T04:10:05.031Z,276
2016-08-01T04:11:05.003Z,288
2016-08-01T04:12:04.270Z,304
2016-08-01T04:13:04.237Z,316
2016-08-01T04:14:04.199Z,336
2016-08-01T04:15:04.174Z,352
2016-08-01T04:16:04.841Z,372
2016-08-01T04:17:03.413Z,392
2016-08-01T04:18:04.074Z,416
2016-08-01T04:19:03.347Z,432
2016-08-01T04:20:04.723Z,448
2016-08-01T04:21:04.680Z,464
2016-08-01T04:22:04.658Z,476
2016-08-01T04:23:03.230Z,492
2016-08-01T04:24:03.185Z,512
2016-08-01T04:25:03.856Z,532
2016-08-01T04:26:03.822Z,564
2016-08-01T04:27:02.395Z,600
2016-08-01T04:28:04.453Z,636
2016-08-01T04:29:04.429Z,672
2016-08-01T04:30:04.388Z,712
2016-08-01T04:31:04.358Z,748
2016-08-01T04:32:03.621Z,776
2016-08-01T04:33:03.598Z,816
2016-08-01T04:34:04.261Z,864
2016-08-01T04:35:03.538Z,912
2016-08-01T04:36:04.198Z,960
2016-08-01T04:37:03.471Z,1000
2016-08-01T04:38:02.736Z,1072
2016-08-01T04:39:03.401Z,1128
2016-08-01T04:40:04.064Z,1200
2016-08-01T04:41:04.045Z,1300
2016-08-01T04:42:02.607Z,1392
2016-08-01T04:43:03.966Z,1492
2016-08-01T04:44:03.239Z,1600
2016-08-01T04:45:03.908Z,1700
2016-08-01T04:46:03.865Z,1824
2016-08-01T04:47:03.844Z,1976
2016-08-01T04:48:03.114Z,2064
2016-08-01T04:49:03.773Z,2172
2016-08-01T04:50:03.062Z,2280
2016-08-01T04:51:03.735Z,2388
2016-08-01T04:52:03.681Z,2496
2016-08-01T04:53:03.649Z,2620
2016-08-01T04:54:03.615Z,2700
2016-08-01T04:55:02.187Z,2732
2016-08-01T04:56:02.855Z,2700
2016-08-01T04:57:02.827Z,2680
2016-08-01T04:58:02.794Z,2636
2016-08-01T04:59:03.460Z,2612
2016-08-01T05:00:02.726Z,2668
2016-08-01T05:01:01.995Z,2760
2016-08-01T05:02:03.362Z,2808
2016-08-01T05:03:03.331Z,2868
2016-08-01T05:04:03.296Z,3004
2016-08-01T05:05:03.260Z,3244
2016-08-01T05:06:03.246Z,3412
2016-08-01T05:07:03.200Z,3640
2016-08-01T05:08:02.486Z,3880
2016-08-01T05:09:01.049Z,4008
2016-08-01T05:10:02.406Z,4104
2016-08-01T05:11:02.385Z,4104
2016-08-01T05:12:02.351Z,4084
2016-08-01T05:13:03.007Z,4168
2016-08-01T05:14:02.286Z,4276
2016-08-01T05:15:02.254Z,4520
2016-08-01T05:16:02.913Z,4964
2016-08-01T05:17:02.191Z,5556
2016-08-01T05:18:02.854Z,6200
2016-08-01T05:19:02.817Z,6260
2016-08-01T05:20:02.791Z,6572
2016-08-01T05:21:02.768Z,7128
2016-08-01T05:22:02.727Z,6932
2016-08-01T05:23:02.702Z,7916
2016-08-01T05:24:02.678Z,7736
2016-08-01T05:25:02.633Z,8276
2016-08-01T05:26:01.907Z,9172
2016-08-01T05:27:02.578Z,9468
2016-08-01T05:28:01.846Z,9852
2016-08-01T05:29:01.817Z,9908
2016-08-01T05:30:02.484Z,10416
2016-08-01T05:31:02.439Z,32320
2016-08-01T05:32:02.420Z,13388
2016-08-01T05:33:01.686Z,13040
2016-08-01T05:34:02.357Z,14008
2016-08-01T05:35:00.935Z,17792
2016-08-01T05:36:02.289Z,17664
2016-08-01T05:37:02.266Z,15036
2016-08-01T05:38:01.536Z,13120
2016-08-01T05:39:01.503Z,13800
2016-08-01T05:40:02.174Z,14360
2016-08-01T05:41:01.443Z,19008
2016-08-01T05:42:02.107Z,47968
2016-08-01T05:43:01.390Z,49408
2016-08-01T05:44:02.050Z,48608
2016-08-01T05:45:01.318Z,50816
2016-08-01T05:46:00.602Z,52576
2016-08-01T05:47:01.968Z,55744
2016-08-01T05:48:01.932Z,43136
2016-08-01T05:49:01.214Z,46464
2016-08-01T05:49:59.793Z,23424
2016-08-01T05:51:01.858Z,17536
2016-08-01T05:52:00.433Z,22912
2016-08-01T05:53:01.103Z,27040
2016-08-01T05:54:01.783Z,15896
2016-08-01T05:55:01.045Z,15192
2016-08-01T05:56:01.719Z,21056
2016-08-01T05:57:01.688Z,15068
2016-08-01T05:58:00.989Z,14976
2016-08-01T05:59:01.642Z,15600
2016-08-01T06:00:01.613Z,13932
2016-08-01T06:01:00.904Z,13172
2016-08-01T06:02:01.559Z,12296
2016-08-01T06:03:01.531Z,11648
2016-08-01T06:04:00.823Z,11100
2016-08-01T06:05:00.783Z,10648
2016-08-01T06:06:00.766Z,10464
2016-08-01T06:07:01.426Z,10288
2016-08-01T06:08:00.005Z,10540
2016-08-01T06:09:01.371Z,9584
2016-08-01T06:10:00.654Z,9072
2016-08-01T06:11:00.621Z,8628
2016-08-01T06:12:01.290Z,8336
2016-08-01T06:13:01.267Z,8008
2016-08-01T06:14:00.540Z,7840
2016-08-01T06:14:59.815Z,7672
2016-08-01T06:16:00.485Z,7528
2016-08-01T06:16:59.797Z,7496
2016-08-01T06:18:00.428Z,7516
2016-08-01T06:19:01.100Z,7652
2016-08-01T06:19:59.674Z,7788
2016-08-01T06:21:01.043Z,7924
2016-08-01T06:22:01.021Z,8164
2016-08-01T06:23:00.292Z,8272
2016-08-01T06:24:00.265Z,8480
2016-08-01T06:25:00.241Z,8600
2016-08-01T06:26:00.904Z,8856
2016-08-01T06:27:00.878Z,9256
2016-08-01T06:28:00.168Z,9796
2016-08-01T06:29:00.820Z,10344
2016-08-01T06:30:00.092Z,10712
2016-08-01T06:31:00.764Z,11036
2016-08-01T06:32:00.044Z,11148
2016-08-01T06:33:00.708Z,11432
2016-08-01T06:33:59.983Z,11592
2016-08-01T06:35:00.649Z,11948
2016-08-01T06:35:59.225Z,12212
2016-08-01T06:36:59.195Z,12440
2016-08-01T06:37:59.867Z,12752
2016-08-01T06:38:59.837Z,13148
2016-08-01T06:39:59.807Z,14248
2016-08-01T06:40:59.783Z,14188
2016-08-01T06:42:00.455Z,14860
2016-08-01T06:42:59.720Z,16268
2016-08-01T06:43:59.701Z,16144
2016-08-01T06:45:00.366Z,17536
2016-08-01T06:46:00.336Z,19200
2016-08-01T06:47:00.311Z,23872
2016-08-01T06:47:59.591Z,20448
2016-08-01T06:49:00.248Z,83392
2016-08-01T06:49:59.522Z,82976
2016-08-01T06:51:00.195Z,76736
2016-08-01T06:52:00.162Z,72096
2016-08-01T06:53:00.137Z,74400
2016-08-01T06:54:00.123Z,78816
2016-08-01T06:54:59.389Z,79296
2016-08-01T06:55:59.363Z,78272
2016-08-01T06:57:00.031Z,80704
2016-08-01T06:57:59.308Z,80032
2016-08-01T06:58:59.976Z,75584
2016-08-01T06:59:59.265Z,77408
2016-08-01T07:00:58.535Z,79200
2016-08-01T07:01:59.905Z,81632
2016-08-01T07:02:59.189Z,84288
2016-08-01T07:03:59.161Z,83936
2016-08-01T07:04:58.443Z,84448
2016-08-01T07:05:59.818Z,83456
2016-08-01T07:06:59.793Z,82016
2016-08-01T07:07:59.772Z,81184
2016-08-01T07:08:59.051Z,79936
2016-08-01T07:09:59.722Z,80352
2016-08-01T07:10:59.009Z,83008
2016-08-01T07:11:58.993Z,86496
2016-08-01T07:12:59.668Z,85728
2016-08-01T07:13:59.646Z,85504
2016-08-01T07:14:59.623Z,84288
2016-08-01T07:15:58.233Z,83328
2016-08-01T07:16:59.582Z,81408
2016-08-01T07:17:59.565Z,82848
2016-08-01T07:18:58.847Z,74240
2016-08-01T07:19:57.908Z,63392
2016-08-01T07:20:59.504Z,60256
2016-08-01T07:21:58.792Z,76032
2016-08-01T07:22:59.464Z,77344
2016-08-01T07:23:58.759Z,86240
2016-08-01T07:24:58.732Z,83392
2016-08-01T07:25:59.408Z,82880
2016-08-01T07:26:58.694Z,82240
2016-08-01T07:27:59.385Z,83008
2016-08-01T07:28:59.361Z,83296
2016-08-01T07:29:58.645Z,84480
2016-08-01T07:30:57.933Z,82208
2016-08-01T07:31:58.614Z,83648
2016-08-01T07:32:58.585Z,87584
2016-08-01T07:33:59.271Z,84960
2016-08-01T07:35:59.238Z,89536
2016-08-01T07:36:58.517Z,88352
2016-08-01T07:37:59.197Z,91200
2016-08-01T07:38:57.797Z,93888
2016-08-01T07:39:59.165Z,90560
2016-08-01T07:40:59.156Z,90304
2016-08-01T07:41:58.428Z,93024
2016-08-01T07:42:58.417Z,94048
2016-08-01T07:43:59.097Z,92608
2016-08-01T07:44:59.080Z,89120
2016-08-01T07:45:59.333Z,88448
2016-08-01T07:46:58.473Z,87200
2016-08-01T07:47:59.033Z,92192
2016-08-01T07:48:59.021Z,95136
2016-08-01T07:50:57.599Z,81632
2016-08-01T07:51:57.579Z,77984
2016-08-01T07:52:58.262Z,86208
2016-08-01T07:53:58.954Z,94816
2016-08-01T07:54:58.230Z,98368
2016-08-01T07:55:58.208Z,88384
2016-08-01T07:56:57.504Z,84672
2016-08-01T07:57:58.885Z,91776
2016-08-01T07:58:58.863Z,92096
2016-08-01T07:59:58.854Z,91008
2016-08-01T08:00:58.842Z,87328
2016-08-01T08:01:58.819Z,91232
2016-08-01T08:02:58.111Z,75104
2016-08-01T08:03:58.099Z,92224
2016-08-01T08:04:58.083Z,90720
2016-08-01T08:05:58.768Z,110336
2016-08-01T08:06:58.056Z,120672
2016-08-01T08:07:58.745Z,117632
2016-08-01T08:08:58.718Z,109824
2016-08-01T08:09:58.720Z,118048
2016-08-01T08:10:57.993Z,111456
2016-08-01T08:11:58.672Z,102144
2016-08-01T08:12:58.670Z,98688
2016-08-01T08:13:57.253Z,69152
2016-08-01T08:14:58.630Z,73504
2016-08-01T08:15:58.617Z,105632
2016-08-01T08:16:57.908Z,114752
2016-08-01T08:17:57.890Z,114176
2016-08-01T08:18:57.882Z,110816
2016-08-01T08:19:57.175Z,110592
2016-08-01T08:20:58.541Z,114560
2016-08-01T08:21:58.528Z,118496
2016-08-01T08:22:58.518Z,123584
2016-08-01T08:23:58.509Z,130208
2016-08-01T08:24:58.492Z,128416
2016-08-01T08:25:57.778Z,121664
2016-08-01T08:26:58.472Z,120000
2016-08-01T08:27:58.447Z,123072
2016-08-01T08:28:58.430Z,117824
2016-08-01T08:29:58.422Z,110304
2016-08-01T08:30:57.714Z,110656
2016-08-01T08:31:57.709Z,106528
2016-08-01T08:32:57.717Z,110496
2016-08-01T08:33:58.374Z,120992
2016-08-01T08:34:58.366Z,122336
2016-08-01T08:35:57.651Z,127488
2016-08-01T08:36:57.639Z,136672
2016-08-01T08:37:58.320Z,123552
2016-08-01T08:38:57.609Z,121088
2016-08-01T08:39:58.296Z,29056
2016-08-01T08:40:58.284Z,58432
2016-08-01T08:41:57.577Z,92032
2016-08-01T08:42:58.253Z,59328
2016-08-01T08:43:58.246Z,46496
2016-08-01T08:44:58.233Z,44064
2016-08-01T08:45:58.219Z,41920
2016-08-01T08:46:58.223Z,21024
2016-08-01T08:47:56.803Z,33344
2016-08-01T08:48:58.196Z,24320
2016-08-01T08:49:57.476Z,21312
2016-08-01T08:50:57.460Z,22272
2016-08-01T08:51:56.752Z,18624
2016-08-01T08:52:58.135Z,16716
2016-08-01T08:53:56.963Z,15164
2016-08-01T08:54:57.401Z,15224
2016-08-01T08:55:58.080Z,14448
2016-08-01T08:56:57.381Z,13736
2016-08-01T08:57:57.360Z,13212
2016-08-01T08:58:58.036Z,12696
2016-08-01T08:59:58.034Z,13084
2016-08-01T09:00:58.003Z,13016
2016-08-01T09:01:57.987Z,13120
2016-08-01T09:02:57.990Z,12296
2016-08-01T09:03:57.251Z,12492
2016-08-01T09:04:57.928Z,12924
2016-08-01T09:05:57.213Z,13964
2016-08-01T09:06:57.189Z,17056
2016-08-01T09:07:57.180Z,20160
2016-08-01T09:08:57.843Z,79808
2016-08-01T09:09:57.836Z,87712
2016-08-01T09:10:57.160Z,81024
2016-08-01T09:11:57.108Z,83072
2016-08-01T09:12:57.066Z,88608
2016-08-01T09:13:57.048Z,92256
2016-08-01T09:14:57.028Z,95904
2016-08-01T09:15:57.001Z,96192
2016-08-01T09:16:57.685Z,91200
2016-08-01T09:17:57.663Z,101504
2016-08-01T09:18:57.644Z,101888
2016-08-01T09:19:57.625Z,103328
2016-08-01T09:20:57.607Z,103424
2016-08-01T09:21:57.590Z,107616
2016-08-01T09:22:56.871Z,108864
2016-08-01T09:23:56.867Z,109536
2016-08-01T09:24:57.538Z,109472
2016-08-01T09:25:56.122Z,107840
2016-08-01T09:26:57.497Z,102176
2016-08-01T09:27:56.792Z,102528
2016-08-01T09:28:56.776Z,102176
2016-08-01T09:29:56.756Z,98400
2016-08-01T09:30:57.446Z,100160
2016-08-01T09:31:56.719Z,103488
2016-08-01T09:32:57.411Z,104960
2016-08-01T09:33:57.393Z,110048
2016-08-01T09:34:57.380Z,112832
2016-08-01T09:35:57.366Z,93248
2016-08-01T09:36:57.351Z,111776
2016-08-01T09:37:57.336Z,104224
2016-08-01T09:38:56.630Z,110976
2016-08-01T09:39:57.317Z,20576
2016-08-01T09:40:57.301Z,19328
2016-08-01T09:41:57.294Z,19296
2016-08-01T09:42:57.270Z,20672
2016-08-01T09:43:57.261Z,27552
2016-08-01T09:44:55.855Z,127840
2016-08-01T09:45:57.229Z,129984
2016-08-01T09:46:57.213Z,130880
2016-08-01T09:47:57.203Z,41440
2016-08-01T09:48:57.184Z,60096
2016-08-01T09:49:55.786Z,100160
2016-08-01T09:50:56.467Z,50720
2016-08-01T09:51:56.452Z,37184
2016-08-01T09:52:56.428Z,33536
2016-08-01T09:53:57.110Z,32896
2016-08-01T09:54:57.089Z,36192
2016-08-01T09:55:57.080Z,46816
2016-08-01T09:56:57.060Z,40512
2016-08-01T09:57:56.345Z,22688
2016-08-01T09:58:56.346Z,19776
2016-08-01T09:59:56.322Z,19200
2016-08-01T10:00:55.596Z,18560
2016-08-01T10:01:56.282Z,18304
2016-08-01T10:02:56.960Z,16896
2016-08-01T10:03:56.947Z,15632
2016-08-01T10:04:56.931Z,14736
2016-08-01T10:05:56.903Z,14536
2016-08-01T10:06:56.886Z,14108
2016-08-01T10:07:56.166Z,13736
2016-08-01T10:08:55.449Z,13524
2016-08-01T10:09:56.825Z,14704
2016-08-01T10:10:56.803Z,16064
2016-08-01T10:11:56.789Z,23136
2016-08-01T10:12:56.071Z,48800
2016-08-01T10:13:56.045Z,29568
2016-08-01T10:14:55.341Z,28256
2016-08-01T10:15:56.012Z,35552
2016-08-01T10:16:56.685Z,28064
2016-08-01T10:17:55.962Z,29376
2016-08-01T10:18:56.635Z,30176
2016-08-01T10:19:55.923Z,28704
2016-08-01T10:20:56.607Z,29344
2016-08-01T10:21:55.879Z,26976
2016-08-01T10:22:55.863Z,30368
2016-08-01T10:23:56.537Z,58848
2016-08-01T10:24:56.504Z,30432
2016-08-01T10:25:55.101Z,31584
2016-08-01T10:26:56.479Z,72160
2016-08-01T10:27:56.458Z,104608
2016-08-01T10:28:55.726Z,95488
2016-08-01T10:29:55.704Z,131296
2016-08-01T10:30:55.683Z,114656
2016-08-01T10:31:56.358Z,123840
2016-08-01T10:32:56.343Z,96864
2016-08-01T10:33:54.923Z,130528
2016-08-01T10:34:55.602Z,132224
2016-08-01T10:35:56.281Z,132544
2016-08-01T10:36:56.261Z,132064
2016-08-01T10:37:55.543Z,126528
2016-08-01T10:38:55.524Z,121504
2016-08-01T10:39:55.513Z,122336
2016-08-01T10:40:56.182Z,123776
2016-08-01T10:41:56.166Z,129984
2016-08-01T10:42:55.455Z,99616
2016-08-01T10:43:56.136Z,128448
2016-08-01T10:44:56.114Z,128768
2016-08-01T10:45:55.410Z,123008
2016-08-01T10:46:56.084Z,82752
2016-08-01T10:47:55.365Z,56480
2016-08-01T10:48:56.062Z,54528
2016-08-01T10:49:56.041Z,54112
2016-08-01T10:50:56.020Z,53536
2016-08-01T10:51:55.314Z,53568
2016-08-01T10:52:55.993Z,52960
2016-08-01T10:53:55.980Z,50720
2016-08-01T10:54:55.982Z,44864
2016-08-01T10:55:55.956Z,43072
2016-08-01T10:56:55.239Z,42144
2016-08-01T10:57:55.939Z,31744
2016-08-01T10:58:54.518Z,23488
2016-08-01T10:59:55.200Z,23072
2016-08-01T11:00:54.502Z,23136
2016-08-01T11:01:55.175Z,23232
2016-08-01T11:02:55.158Z,24352
2016-08-01T11:03:55.844Z,24224
2016-08-01T11:04:55.824Z,23424
2016-08-01T11:05:55.811Z,24352
2016-08-01T11:06:55.803Z,41056
2016-08-01T11:07:55.092Z,47168
2016-08-01T11:08:55.786Z,94560
2016-08-01T11:09:55.761Z,82944
2016-08-01T11:10:55.046Z,101952
2016-08-01T11:11:55.033Z,100864
2016-08-01T11:12:55.015Z,102528
2016-08-01T11:13:55.696Z,106080
2016-08-01T11:14:55.677Z,17180
2016-08-01T11:15:54.964Z,93216
2016-08-01T11:16:54.251Z,83520
2016-08-01T11:17:54.929Z,88224
2016-08-01T11:18:55.608Z,101408
2016-08-01T11:19:55.590Z,101056
2016-08-01T11:20:55.591Z,85184
2016-08-01T11:21:55.555Z,39904
2016-08-01T11:22:55.541Z,19712
2016-08-01T11:23:54.132Z,18400
2016-08-01T11:24:54.803Z,17372
2016-08-01T11:25:54.798Z,16268
2016-08-01T11:26:55.466Z,15220
2016-08-01T11:27:55.454Z,14464
2016-08-01T11:28:54.736Z,13984
2016-08-01T11:29:55.403Z,13436
2016-08-01T11:30:55.392Z,13384
2016-08-01T11:31:55.377Z,12992
2016-08-01T11:32:53.261Z,12124
2016-08-01T11:33:55.343Z,11628
2016-08-01T11:34:54.632Z,12052
2016-08-01T11:35:55.290Z,13364
2016-08-01T11:36:55.273Z,13748
2016-08-01T11:37:55.253Z,15124
2016-08-01T11:38:55.223Z,15528
2016-08-01T11:39:54.513Z,14452
2016-08-01T11:40:55.182Z,13176
2016-08-01T11:41:55.168Z,12360
2016-08-01T11:42:53.757Z,12012
2016-08-01T11:43:54.419Z,13144
2016-08-01T11:44:55.096Z,13272
2016-08-01T11:45:55.078Z,13036
2016-08-01T11:46:54.357Z,14156
2016-08-01T11:47:55.029Z,17156
2016-08-01T11:48:55.009Z,20384
2016-08-01T11:49:54.307Z,22080
2016-08-01T11:51:53.549Z,23968
2016-08-01T11:52:54.921Z,23872
2016-08-01T11:53:54.195Z,23040
2016-08-01T11:54:54.866Z,22176
2016-08-01T11:55:54.844Z,21408
2016-08-01T11:56:54.124Z,21376
2016-08-01T11:57:54.799Z,21536
2016-08-01T11:58:54.775Z,21888
2016-08-01T11:59:54.754Z,22432
2016-08-01T12:00:54.032Z,21696
2016-08-01T12:01:54.005Z,20736
2016-08-01T12:02:54.678Z,19872
2016-08-01T12:03:53.972Z,19296
2016-08-01T12:04:53.945Z,19104
2016-08-01T12:06:54.603Z,18528
2016-08-01T12:07:54.557Z,18016
2016-08-01T12:08:54.542Z,18208
2016-08-01T12:09:54.523Z,18976
2016-08-01T12:10:54.495Z,19744
2016-08-01T12:11:54.481Z,18624
2016-08-01T12:12:54.446Z,17504
2016-08-01T12:13:54.423Z,16912
2016-08-01T12:14:54.399Z,16576
2016-08-01T12:15:53.872Z,14552
2016-08-01T12:16:53.659Z,14100
2016-08-01T12:17:53.626Z,13640
2016-08-01T12:18:54.298Z,12532
2016-08-01T12:19:53.582Z,11848
2016-08-01T12:20:53.552Z,11456
2016-08-01T12:21:54.222Z,10784
2016-08-01T12:22:54.221Z,10112
2016-08-01T12:23:54.182Z,9472
2016-08-01T12:24:53.461Z,9032
2016-08-01T12:25:54.129Z,8504
2016-08-01T12:26:52.712Z,8548
2016-08-01T12:27:52.699Z,8144
2016-08-01T12:28:54.057Z,8076
2016-08-01T12:29:53.328Z,7796
2016-08-01T12:30:53.305Z,7692
2016-08-01T12:31:53.279Z,7264
2016-08-01T12:32:52.560Z,7268
2016-08-01T12:33:53.231Z,7712
2016-08-01T12:34:53.895Z,8000
2016-08-01T12:35:53.870Z,8392
2016-08-01T12:36:53.153Z,8724
2016-08-01T12:37:53.828Z,8144
2016-08-01T12:38:53.120Z,7844
2016-08-01T12:39:53.770Z,8108
2016-08-01T12:40:53.054Z,9108
2016-08-01T12:41:53.721Z,8596
2016-08-01T12:42:53.013Z,8544
2016-08-01T12:43:53.670Z,7600
2016-08-01T12:44:52.953Z,7092
2016-08-01T12:45:53.611Z,6960
2016-08-01T12:46:53.590Z,6856
2016-08-01T12:47:52.875Z,6744
2016-08-01T12:48:53.540Z,6708
2016-08-01T12:49:52.816Z,6672
2016-08-01T12:50:53.483Z,6612
2016-08-01T12:51:52.762Z,6532
2016-08-01T12:52:52.734Z,6468
2016-08-01T12:53:53.403Z,6400
2016-08-01T12:54:52.682Z,6348
2016-08-01T12:55:52.665Z,6348
2016-08-01T12:56:53.326Z,6296
2016-08-01T12:57:51.905Z,6292
2016-08-01T12:58:53.273Z,6248
2016-08-01T12:59:53.245Z,6184
2016-08-01T13:00:51.832Z,6196
2016-08-01T13:01:52.499Z,6248
2016-08-01T13:02:52.469Z,6292
2016-08-01T13:03:52.443Z,6272
2016-08-01T13:04:52.410Z,6184
2016-08-01T13:05:52.395Z,6172
2016-08-01T13:06:53.071Z,6208
2016-08-01T13:07:52.339Z,6252
2016-08-01T13:08:53.006Z,6256
2016-08-01T13:09:53.001Z,6276
2016-08-01T13:10:52.961Z,6328
2016-08-01T13:11:51.545Z,6284
2016-08-01T13:12:52.203Z,6240
2016-08-01T13:13:52.879Z,6224
2016-08-01T13:14:52.152Z,6188
2016-08-01T13:15:52.126Z,6200
2016-08-01T13:16:52.100Z,6376
2016-08-01T13:17:52.079Z,6472
2016-08-01T13:18:52.048Z,6628
2016-08-01T13:19:52.021Z,6876
2016-08-01T13:20:51.995Z,6968
2016-08-01T13:21:51.966Z,6976
2016-08-01T13:22:52.636Z,6916
2016-08-01T13:23:51.925Z,6812
2016-08-01T13:24:51.888Z,6540
2016-08-01T13:25:51.871Z,6460
2016-08-01T13:26:51.838Z,6284
2016-08-01T13:27:52.503Z,6196
2016-08-01T13:28:52.481Z,6152
2016-08-01T13:29:52.452Z,6420
2016-08-01T13:30:51.726Z,6872
2016-08-01T13:31:51.699Z,7192